Terminal Aerodrome Forecast
Issued by NWS

Home | Current Version | Previous Version | Text Only | Print | Product List | Glossary On
Versions: 1 2 3 4 5 6 7 8 9 10 11 12 13 14 15 16 17 18 19 20 21
000
FTUS43 KDVN 071120
TAFBRL
TAF
KBRL 071120Z 0712/0812 01010KT 3SM BR BKN070
      TEMPO 0712/0714 2SM BR
     FM071400 02010KT 5SM HZ BKN080
     FM071600 01012G20KT P6SM SCT040
     FM072300 02007KT P6SM SCT050=

USA.gov is the U.S. government's official web portal to all federal, state and local government web resources and services.